createdAt,value
2022-10-28T00:00:56.448Z,17.00
2022-10-28T00:03:23.179Z,16.90
2022-10-28T00:05:49.940Z,16.90
2022-10-28T00:08:16.602Z,16.90
2022-10-28T00:10:43.290Z,16.90
2022-10-28T00:13:09.955Z,16.90
2022-10-28T00:15:36.744Z,16.90
2022-10-28T00:18:03.474Z,16.90
2022-10-28T00:20:31.915Z,16.90
2022-10-28T00:22:58.589Z,16.90
2022-10-28T00:25:25.319Z,16.80
2022-10-28T00:27:53.032Z,16.80
2022-10-28T00:30:20.264Z,16.80
2022-10-28T00:32:47.080Z,16.80
2022-10-28T00:35:13.856Z,16.80
2022-10-28T00:37:40.869Z,16.80
2022-10-28T00:40:08.102Z,16.80
2022-10-28T00:42:34.782Z,16.80
2022-10-28T00:45:02.637Z,16.80
2022-10-28T00:47:52.206Z,16.70
2022-10-28T00:50:31.311Z,16.70
2022-10-28T00:53:05.299Z,16.70
2022-10-28T00:55:33.231Z,16.70
2022-10-28T00:58:02.309Z,16.70
2022-10-28T01:00:29.175Z,16.70
2022-10-28T01:02:56.515Z,16.70
2022-10-28T01:05:27.274Z,16.70
2022-10-28T01:07:58.597Z,16.70
2022-10-28T01:10:49.092Z,16.70
2022-10-28T01:13:40.623Z,16.70
2022-10-28T01:16:40.674Z,16.70
2022-10-28T01:20:11.926Z,16.70
2022-10-28T01:22:59.851Z,16.70
2022-10-28T01:25:57.039Z,16.60
2022-10-28T01:28:42.146Z,16.60
2022-10-28T01:31:39.325Z,16.60
2022-10-28T01:34:35.399Z,16.60
2022-10-28T01:37:11.246Z,16.60
2022-10-28T01:40:02.363Z,16.60
2022-10-28T01:42:35.852Z,16.60
2022-10-28T01:45:21.161Z,16.60
2022-10-28T01:47:56.878Z,16.60
2022-10-28T01:50:29.458Z,16.60
2022-10-28T01:53:00.210Z,16.60
2022-10-28T01:55:31.315Z,16.60
2022-10-28T01:58:00.745Z,16.60
2022-10-28T02:00:28.733Z,16.60
2022-10-28T02:02:56.577Z,16.50
2022-10-28T02:05:41.790Z,16.50
2022-10-28T02:08:16.616Z,16.60
2022-10-28T02:10:56.247Z,16.50
2022-10-28T02:13:45.708Z,16.50
2022-10-28T02:16:44.940Z,16.50
2022-10-28T02:19:41.707Z,16.50
2022-10-28T02:22:30.831Z,16.50
2022-10-28T02:25:19.520Z,16.50
2022-10-28T02:27:55.816Z,16.50
2022-10-28T02:30:51.891Z,16.40
2022-10-28T02:33:22.952Z,16.40
2022-10-28T02:35:57.452Z,16.40
2022-10-28T02:38:34.717Z,16.40
2022-10-28T02:41:05.446Z,16.40
2022-10-28T02:43:34.834Z,16.40
2022-10-28T02:46:03.421Z,16.40
2022-10-28T02:49:02.204Z,16.40
2022-10-28T02:51:52.248Z,16.40
2022-10-28T02:54:23.139Z,16.40
2022-10-28T02:57:02.212Z,16.40
2022-10-28T02:59:29.942Z,16.40
2022-10-28T03:01:56.791Z,16.40
2022-10-28T03:04:23.567Z,16.40
2022-10-28T03:06:50.374Z,16.40
2022-10-28T03:09:17.072Z,16.40
2022-10-28T03:11:43.814Z,16.30
2022-10-28T03:14:13.211Z,16.30
2022-10-28T03:16:42.125Z,16.40
2022-10-28T03:21:40.398Z,16.40
2022-10-28T03:24:07.280Z,16.40
2022-10-28T03:26:33.971Z,16.30
2022-10-28T03:29:00.610Z,16.30
2022-10-28T03:31:27.351Z,16.40
2022-10-28T03:33:54.074Z,16.40
2022-10-28T03:36:20.775Z,16.30
2022-10-28T03:38:47.462Z,16.30
2022-10-28T03:41:14.263Z,16.30
2022-10-28T03:43:41.322Z,16.30
2022-10-28T03:46:07.974Z,16.30
2022-10-28T03:48:34.625Z,16.30
2022-10-28T03:51:01.389Z,16.30
2022-10-28T03:53:31.148Z,16.30
2022-10-28T03:56:00.325Z,16.30
2022-10-28T03:58:27.424Z,16.30
2022-10-28T04:00:54.795Z,16.20
2022-10-28T04:03:22.606Z,16.20
2022-10-28T04:05:49.434Z,16.20
2022-10-28T04:08:21.136Z,16.20
2022-10-28T04:10:49.960Z,16.20
2022-10-28T04:13:17.276Z,16.20
2022-10-28T04:15:44.183Z,16.20
2022-10-28T04:18:11.028Z,16.20
2022-10-28T04:20:38.070Z,16.20
2022-10-28T04:23:04.801Z,16.20
2022-10-28T04:25:31.470Z,16.20
2022-10-28T04:27:58.212Z,16.10
2022-10-28T04:30:24.899Z,16.10
2022-10-28T04:32:51.608Z,16.10
2022-10-28T04:35:18.419Z,16.10
2022-10-28T04:37:45.411Z,16.10
2022-10-28T04:40:12.466Z,16.10
2022-10-28T04:42:39.124Z,16.00
2022-10-28T04:45:06.500Z,16.10
2022-10-28T04:47:33.338Z,16.00
2022-10-28T04:50:00.112Z,16.00
2022-10-28T04:52:26.754Z,16.00
2022-10-28T04:54:53.446Z,16.00
2022-10-28T04:57:20.107Z,16.00
2022-10-28T04:59:46.793Z,16.00
2022-10-28T05:02:13.625Z,16.00
2022-10-28T05:04:40.473Z,15.90
2022-10-28T05:07:07.367Z,15.90
2022-10-28T05:09:34.135Z,15.90
2022-10-28T05:12:00.799Z,15.90
2022-10-28T05:14:27.521Z,15.80
2022-10-28T05:16:54.212Z,15.80
2022-10-28T05:19:20.914Z,15.80
2022-10-28T05:21:47.614Z,15.80
2022-10-28T05:24:14.305Z,15.70
2022-10-28T05:26:40.985Z,15.70
2022-10-28T05:29:07.744Z,15.70
2022-10-28T05:31:34.451Z,15.70
2022-10-28T05:34:01.094Z,15.70
2022-10-28T05:36:27.780Z,15.70
2022-10-28T05:38:54.431Z,15.60
2022-10-28T05:41:23.184Z,15.60
2022-10-28T05:43:51.450Z,15.60
2022-10-28T05:46:18.211Z,15.60
2022-10-28T05:48:45.015Z,15.60
2022-10-28T05:51:11.706Z,15.60
2022-10-28T05:53:38.419Z,15.60
2022-10-28T05:56:05.252Z,15.50
2022-10-28T05:58:31.919Z,15.60
2022-10-28T06:00:58.943Z,15.50
2022-10-28T06:03:30.109Z,15.50
2022-10-28T06:05:58.733Z,15.50
2022-10-28T06:08:25.456Z,15.50
2022-10-28T06:10:52.541Z,15.50
2022-10-28T06:13:19.540Z,15.50
2022-10-28T06:15:53.702Z,15.40
2022-10-28T06:18:21.192Z,15.40
2022-10-28T06:20:55.965Z,15.40
2022-10-28T06:23:23.888Z,15.40
2022-10-28T06:25:54.700Z,15.40
2022-10-28T06:28:21.412Z,15.40
2022-10-28T06:30:48.110Z,15.40
2022-10-28T06:33:14.781Z,15.30
2022-10-28T06:35:41.639Z,15.30
2022-10-28T06:38:09.559Z,15.30
2022-10-28T06:40:36.406Z,15.30
2022-10-28T06:43:05.668Z,15.20
2022-10-28T06:45:33.433Z,15.20
2022-10-28T06:48:04.169Z,15.20
2022-10-28T06:50:31.061Z,15.20
2022-10-28T06:52:58.000Z,15.20
2022-10-28T06:55:25.973Z,15.20
2022-10-28T06:57:53.039Z,15.20
2022-10-28T07:00:20.065Z,15.20
2022-10-28T07:02:52.364Z,15.20
2022-10-28T07:05:19.329Z,15.20
2022-10-28T07:07:46.025Z,15.20
2022-10-28T07:10:12.708Z,15.20
2022-10-28T07:12:39.452Z,15.20
2022-10-28T07:15:06.758Z,15.20
2022-10-28T07:17:33.468Z,15.20
2022-10-28T07:20:00.148Z,15.30
2022-10-28T07:22:26.797Z,15.30
2022-10-28T07:24:53.494Z,15.30
2022-10-28T07:27:20.203Z,15.30
2022-10-28T07:29:46.883Z,15.40
2022-10-28T07:32:13.596Z,15.40
2022-10-28T07:34:40.371Z,15.40
2022-10-28T07:37:07.123Z,15.50
2022-10-28T07:39:33.830Z,15.50
2022-10-28T07:42:01.382Z,15.50
2022-10-28T07:44:28.113Z,15.60
2022-10-28T07:46:57.984Z,15.70
2022-10-28T07:49:25.024Z,15.70
2022-10-28T07:51:51.769Z,15.80
2022-10-28T07:54:18.560Z,15.80
2022-10-28T07:56:45.267Z,15.80
2022-10-28T07:59:11.984Z,15.90
2022-10-28T08:01:39.193Z,16.00
2022-10-28T08:04:06.118Z,16.10
2022-10-28T08:06:34.700Z,16.10
2022-10-28T08:09:01.403Z,16.20
2022-10-28T08:11:28.123Z,16.30
2022-10-28T08:13:55.867Z,16.30
2022-10-28T08:16:23.046Z,16.40
2022-10-28T08:18:49.781Z,16.40
2022-10-28T08:21:16.790Z,16.50
2022-10-28T08:23:46.879Z,16.60
2022-10-28T08:26:17.024Z,16.70
2022-10-28T08:28:43.787Z,16.80
2022-10-28T08:31:12.245Z,16.80
2022-10-28T08:33:42.205Z,16.90
2022-10-28T08:36:11.426Z,17.00
2022-10-28T08:38:42.902Z,17.10
2022-10-28T08:41:36.029Z,17.20
2022-10-28T08:44:21.334Z,17.30
2022-10-28T08:47:13.200Z,17.40
2022-10-28T08:49:43.487Z,17.40
2022-10-28T08:52:22.600Z,17.50
2022-10-28T08:55:02.419Z,17.60
2022-10-28T08:57:33.548Z,17.70
2022-10-28T09:00:00.790Z,17.70
2022-10-28T09:02:35.753Z,17.80
2022-10-28T09:05:20.015Z,17.90
2022-10-28T09:07:46.833Z,18.00
2022-10-28T09:10:16.031Z,18.00
2022-10-28T09:13:03.061Z,18.20
2022-10-28T09:15:50.001Z,18.20
2022-10-28T09:18:39.821Z,18.30
2022-10-28T09:21:14.797Z,18.40
2022-10-28T09:23:54.214Z,18.40
2022-10-28T09:26:31.979Z,18.50
2022-10-28T09:29:20.482Z,18.50
2022-10-28T09:32:16.894Z,18.60
2022-10-28T09:34:43.662Z,18.70
2022-10-28T09:37:15.353Z,18.70
2022-10-28T09:39:46.129Z,18.80
2022-10-28T09:42:29.789Z,18.80
2022-10-28T09:45:06.972Z,18.80
2022-10-28T09:47:44.119Z,18.90
2022-10-28T09:50:19.119Z,18.90
2022-10-28T09:53:10.010Z,18.90
2022-10-28T09:55:36.771Z,19.00
2022-10-28T09:58:04.522Z,19.00
2022-10-28T10:00:31.973Z,19.10
2022-10-28T10:02:59.314Z,19.10
2022-10-28T10:05:26.964Z,19.10
2022-10-28T10:08:04.872Z,19.20
2022-10-28T10:10:56.880Z,19.30
2022-10-28T10:13:35.119Z,19.30
2022-10-28T10:16:18.540Z,19.40
2022-10-28T10:18:50.383Z,19.50
2022-10-28T10:21:20.143Z,19.60
2022-10-28T10:23:46.854Z,19.60
2022-10-28T10:26:16.315Z,19.70
2022-10-28T10:28:48.599Z,19.80
2022-10-28T10:31:21.973Z,19.90
2022-10-28T10:33:54.514Z,19.90
2022-10-28T10:36:28.213Z,20.00
2022-10-28T10:38:57.437Z,20.10
2022-10-28T10:41:41.456Z,20.10
2022-10-28T10:44:32.631Z,20.20
2022-10-28T10:47:05.933Z,20.30
2022-10-28T10:49:36.988Z,20.30
2022-10-28T10:52:17.373Z,20.40
2022-10-28T10:54:59.092Z,20.40
2022-10-28T10:57:26.518Z,20.50
2022-10-28T10:59:55.511Z,20.60
2022-10-28T11:02:30.286Z,20.70
2022-10-28T11:05:02.214Z,20.70
2022-10-28T11:07:31.643Z,20.80
2022-10-28T11:09:58.643Z,20.80
2022-10-28T11:12:35.504Z,20.80
2022-10-28T11:15:15.482Z,20.90
2022-10-28T11:17:58.562Z,20.90
2022-10-28T11:20:47.019Z,21.00
2022-10-28T11:23:31.632Z,21.00
2022-10-28T11:26:08.198Z,21.10
2022-10-28T11:28:49.233Z,21.20
2022-10-28T11:31:44.755Z,21.20
2022-10-28T11:34:14.192Z,21.20
2022-10-28T11:37:15.377Z,21.30
2022-10-28T11:40:08.019Z,21.30
2022-10-28T11:43:05.538Z,21.30
2022-10-28T11:46:05.424Z,21.40
2022-10-28T11:49:03.056Z,21.40
2022-10-28T11:51:54.351Z,21.40
2022-10-28T11:54:43.146Z,21.50
2022-10-28T11:57:24.627Z,21.50
2022-10-28T12:00:16.035Z,21.60
2022-10-28T12:03:12.301Z,21.60
2022-10-28T12:05:44.033Z,21.70
2022-10-28T12:08:35.330Z,21.70
2022-10-28T12:11:20.383Z,21.70
2022-10-28T12:14:22.853Z,21.70
2022-10-28T12:16:53.715Z,21.80
2022-10-28T12:19:50.577Z,21.80
2022-10-28T12:22:29.329Z,21.80
2022-10-28T12:24:59.625Z,21.80
2022-10-28T12:27:31.108Z,21.80
2022-10-28T12:30:17.306Z,21.80
2022-10-28T12:32:45.520Z,21.90
2022-10-28T12:35:26.063Z,21.90
2022-10-28T12:38:22.937Z,21.90
2022-10-28T12:40:59.409Z,21.90
2022-10-28T12:43:34.831Z,21.90
2022-10-28T12:46:02.308Z,21.80
2022-10-28T12:48:38.816Z,21.80
2022-10-28T12:51:17.286Z,21.80
2022-10-28T12:53:55.751Z,21.80
2022-10-28T12:56:49.079Z,21.80
2022-10-28T12:59:40.279Z,21.80
2022-10-28T13:02:26.769Z,21.80
2022-10-28T13:04:53.587Z,21.70
2022-10-28T13:07:35.667Z,21.70
2022-10-28T13:10:17.382Z,21.70
2022-10-28T13:12:50.199Z,21.70
2022-10-28T13:15:28.236Z,21.70
2022-10-28T13:18:20.267Z,21.70
2022-10-28T13:21:13.020Z,21.70
2022-10-28T13:23:50.051Z,21.70
2022-10-28T13:26:33.688Z,21.70
2022-10-28T13:29:04.473Z,21.70
2022-10-28T13:31:39.032Z,21.70
2022-10-28T13:34:07.267Z,21.70
2022-10-28T13:36:40.958Z,21.70
2022-10-28T13:39:40.691Z,21.70
2022-10-28T13:42:13.605Z,21.70
2022-10-28T13:44:58.716Z,21.70
2022-10-28T13:47:37.944Z,21.70
2022-10-28T13:50:10.906Z,21.70
2022-10-28T13:52:42.491Z,21.70
2022-10-28T13:55:38.467Z,21.60
2022-10-28T13:58:06.045Z,21.70
2022-10-28T14:00:34.093Z,21.60
2022-10-28T14:03:03.306Z,21.70
2022-10-28T14:05:35.808Z,21.60
2022-10-28T14:08:08.829Z,21.70
2022-10-28T14:10:40.059Z,21.70
2022-10-28T14:13:21.617Z,21.60
2022-10-28T14:15:49.708Z,21.70
2022-10-28T14:18:49.256Z,21.70
2022-10-28T14:21:06.164Z,21.60
2022-10-28T14:23:32.803Z,21.70
2022-10-28T14:26:04.421Z,21.70
2022-10-28T14:28:31.150Z,21.70
2022-10-28T14:31:12.900Z,21.70
2022-10-28T14:33:42.382Z,21.70
2022-10-28T14:36:20.626Z,21.70
2022-10-28T14:38:53.107Z,21.70
2022-10-28T14:41:34.992Z,21.60
2022-10-28T14:44:25.547Z,21.60
2022-10-28T14:47:10.664Z,21.60
2022-10-28T14:49:38.997Z,21.60
2022-10-28T14:52:18.009Z,21.50
2022-10-28T14:54:50.106Z,21.50
2022-10-28T14:57:22.099Z,21.40
2022-10-28T14:59:51.639Z,21.40
2022-10-28T15:02:27.085Z,21.40
2022-10-28T15:05:20.263Z,21.40
2022-10-28T15:07:47.983Z,21.40
2022-10-28T15:10:33.966Z,21.40
2022-10-28T15:13:01.270Z,21.30
2022-10-28T15:15:31.337Z,21.30
2022-10-28T15:17:58.928Z,21.30
2022-10-28T15:20:32.207Z,21.20
2022-10-28T15:23:18.727Z,21.20
2022-10-28T15:25:45.699Z,21.20
2022-10-28T15:28:13.903Z,21.20
2022-10-28T15:30:46.326Z,21.10
2022-10-28T15:33:37.596Z,21.10
2022-10-28T15:36:18.706Z,21.10
2022-10-28T15:38:46.901Z,21.00
2022-10-28T15:41:38.429Z,21.00
2022-10-28T15:44:05.643Z,21.00
2022-10-28T15:46:33.842Z,20.90
2022-10-28T15:49:02.038Z,20.90
2022-10-28T15:51:28.994Z,20.90
2022-10-28T15:54:11.351Z,20.90
2022-10-28T15:56:55.363Z,20.90
2022-10-28T15:59:24.267Z,20.90
2022-10-28T16:01:51.523Z,20.80
2022-10-28T16:04:18.215Z,20.80
2022-10-28T16:06:46.160Z,20.80
2022-10-28T16:09:23.026Z,20.80
2022-10-28T16:11:53.016Z,20.70
2022-10-28T16:14:31.592Z,20.70
2022-10-28T16:17:15.461Z,20.70
2022-10-28T16:19:51.891Z,20.60
2022-10-28T16:22:19.566Z,20.60
2022-10-28T16:24:46.654Z,20.60
2022-10-28T16:27:15.883Z,20.50
2022-10-28T16:29:42.586Z,20.50
2022-10-28T16:32:12.345Z,20.50
2022-10-28T16:34:39.712Z,20.50
2022-10-28T16:37:23.456Z,20.50
2022-10-28T16:39:50.363Z,20.50
2022-10-28T16:42:18.288Z,20.40
2022-10-28T16:44:45.173Z,20.40
2022-10-28T16:47:17.694Z,20.40
2022-10-28T16:49:45.626Z,20.40
2022-10-28T16:52:24.023Z,20.40
2022-10-28T16:54:51.471Z,20.30
2022-10-28T16:57:19.774Z,20.40
2022-10-28T16:59:47.453Z,20.30
2022-10-28T17:02:22.913Z,20.30
2022-10-28T17:04:49.644Z,20.30
2022-10-28T17:07:17.800Z,20.30
2022-10-28T17:09:44.915Z,20.30
2022-10-28T17:12:16.731Z,20.20
2022-10-28T17:14:43.545Z,20.20
2022-10-28T17:17:10.759Z,20.20
2022-10-28T17:19:40.958Z,20.20
2022-10-28T17:22:09.291Z,20.10
2022-10-28T17:24:37.056Z,20.10
2022-10-28T17:27:04.546Z,20.10
2022-10-28T17:29:31.360Z,20.00
2022-10-28T17:31:58.139Z,20.00
2022-10-28T17:34:24.921Z,20.00
2022-10-28T17:36:51.612Z,20.00
2022-10-28T17:39:23.295Z,19.90
2022-10-28T17:41:52.785Z,19.90
2022-10-28T17:44:19.488Z,19.90
2022-10-28T17:46:48.654Z,19.90
2022-10-28T17:49:15.522Z,19.80
2022-10-28T17:51:42.228Z,19.80
2022-10-28T17:54:09.419Z,19.70
2022-10-28T17:56:36.876Z,19.70
2022-10-28T17:59:04.347Z,19.60
2022-10-28T18:01:33.287Z,19.60
2022-10-28T18:04:00.444Z,19.60
2022-10-28T18:06:27.342Z,19.50
2022-10-28T18:08:54.053Z,19.50
2022-10-28T18:11:20.911Z,19.50
2022-10-28T18:13:49.939Z,19.50
2022-10-28T18:16:24.098Z,19.40
2022-10-28T18:18:51.554Z,19.40
2022-10-28T18:21:18.431Z,19.30
2022-10-28T18:23:45.106Z,19.30
2022-10-28T18:26:13.880Z,19.20
2022-10-28T18:28:42.751Z,19.20
2022-10-28T18:31:20.122Z,19.20
2022-10-28T18:33:47.350Z,19.20
2022-10-28T18:36:22.512Z,19.10
2022-10-28T18:38:50.640Z,19.10
2022-10-28T18:41:20.053Z,19.10
2022-10-28T18:43:47.071Z,19.10
2022-10-28T18:46:14.110Z,19.10
2022-10-28T18:48:40.935Z,19.00
2022-10-28T18:51:10.706Z,19.00
2022-10-28T18:53:39.297Z,19.00
2022-10-28T18:56:07.721Z,19.00
2022-10-28T18:58:34.602Z,18.90
2022-10-28T19:01:08.927Z,18.90
2022-10-28T19:03:36.485Z,18.90
2022-10-28T19:06:10.802Z,18.80
2022-10-28T19:08:38.113Z,18.80
2022-10-28T19:11:06.021Z,18.80
2022-10-28T19:13:37.387Z,18.70
2022-10-28T19:16:04.726Z,18.70
2022-10-28T19:18:36.611Z,18.70
2022-10-28T19:21:10.543Z,18.60
2022-10-28T19:23:37.822Z,18.60
2022-10-28T19:26:05.108Z,18.60
2022-10-28T19:28:40.122Z,18.50
2022-10-28T19:31:12.847Z,18.50
2022-10-28T19:33:40.074Z,18.40
2022-10-28T19:36:14.481Z,18.40
2022-10-28T19:38:41.229Z,18.40
2022-10-28T19:41:10.965Z,18.30
2022-10-28T19:43:37.750Z,18.30
2022-10-28T19:46:06.812Z,18.20
2022-10-28T19:48:33.697Z,18.20
2022-10-28T19:51:00.933Z,18.10
2022-10-28T19:53:27.645Z,18.10
2022-10-28T19:56:01.970Z,18.00
2022-10-28T19:58:30.251Z,18.00
2022-10-28T20:01:05.047Z,17.90
2022-10-28T20:03:34.524Z,17.90
2022-10-28T20:06:04.808Z,17.90
2022-10-28T20:08:34.439Z,17.80
2022-10-28T20:11:03.595Z,17.70
2022-10-28T20:13:31.256Z,17.70
2022-10-28T20:16:02.054Z,17.60
2022-10-28T20:18:32.646Z,17.60
2022-10-28T20:21:10.407Z,17.50
2022-10-28T20:23:38.528Z,17.50
2022-10-28T20:26:05.774Z,17.40
2022-10-28T20:28:33.121Z,17.40
2022-10-28T20:31:08.530Z,17.30
2022-10-28T20:33:37.760Z,17.30
2022-10-28T20:36:05.694Z,17.20
2022-10-28T20:38:32.736Z,17.20
2022-10-28T20:41:00.731Z,17.10
2022-10-28T20:43:28.953Z,17.10
2022-10-28T20:45:56.529Z,17.00
2022-10-28T20:48:23.403Z,17.00
2022-10-28T20:50:52.507Z,17.00
2022-10-28T20:53:21.769Z,16.90
2022-10-28T20:55:50.048Z,16.90
2022-10-28T20:58:16.810Z,16.80
2022-10-28T21:00:43.492Z,16.80
2022-10-28T21:03:11.450Z,16.70
2022-10-28T21:05:38.480Z,16.70
2022-10-28T21:08:05.350Z,16.60
2022-10-28T21:10:33.148Z,16.60
2022-10-28T21:13:00.077Z,16.60
2022-10-28T21:15:26.940Z,16.50
2022-10-28T21:17:53.882Z,16.50
2022-10-28T21:20:21.668Z,16.40
2022-10-28T21:22:48.571Z,16.40
2022-10-28T21:25:15.372Z,16.30
2022-10-28T21:27:42.047Z,16.30
2022-10-28T21:30:09.628Z,16.20
2022-10-28T21:32:37.256Z,16.20
2022-10-28T21:35:04.796Z,16.20
2022-10-28T21:37:32.252Z,16.10
2022-10-28T21:40:00.993Z,16.10
2022-10-28T21:42:28.002Z,16.00
2022-10-28T21:44:54.741Z,16.00
2022-10-28T21:49:53.284Z,15.90
2022-10-28T21:52:20.409Z,15.90
2022-10-28T21:54:47.164Z,15.80
2022-10-28T21:57:13.953Z,15.80
2022-10-28T21:59:40.718Z,15.70
2022-10-28T22:02:07.491Z,15.70
2022-10-28T22:04:34.467Z,15.60
2022-10-28T22:07:01.106Z,15.60
2022-10-28T22:09:27.768Z,15.60
2022-10-28T22:11:54.433Z,15.50
2022-10-28T22:14:21.449Z,15.50
2022-10-28T22:16:48.361Z,15.50
2022-10-28T22:19:16.157Z,15.40
2022-10-28T22:21:43.598Z,15.40
2022-10-28T22:24:10.457Z,15.30
2022-10-28T22:26:37.369Z,15.30
2022-10-28T22:29:04.250Z,15.30
2022-10-28T22:31:32.037Z,15.20
2022-10-28T22:33:59.089Z,15.20
2022-10-28T22:36:28.109Z,15.20
2022-10-28T22:38:55.229Z,15.20
2022-10-28T22:41:25.812Z,15.10
2022-10-28T22:43:57.657Z,15.10
2022-10-28T22:46:26.860Z,15.00
2022-10-28T22:48:54.110Z,15.00
2022-10-28T22:51:21.441Z,15.00
2022-10-28T22:53:48.718Z,15.00
2022-10-28T22:56:21.208Z,15.00
2022-10-28T22:58:51.922Z,14.90
2022-10-28T23:01:19.827Z,14.90
2022-10-28T23:03:48.874Z,14.90
2022-10-28T23:06:17.433Z,14.80
2022-10-28T23:08:45.067Z,14.90
2022-10-28T23:11:13.044Z,14.80
2022-10-28T23:13:40.106Z,14.80
2022-10-28T23:16:09.031Z,14.80
2022-10-28T23:18:36.213Z,14.80
2022-10-28T23:21:07.564Z,14.70
2022-10-28T23:23:34.343Z,14.70
2022-10-28T23:26:01.108Z,14.70
2022-10-28T23:28:29.041Z,14.70
2022-10-28T23:30:59.938Z,14.60
2022-10-28T23:33:28.838Z,14.60
2022-10-28T23:35:57.226Z,14.60
2022-10-28T23:38:24.281Z,14.50
2022-10-28T23:40:58.989Z,14.50
2022-10-28T23:43:26.304Z,14.50
2022-10-28T23:45:53.031Z,14.40
2022-10-28T23:48:20.127Z,14.40
2022-10-28T23:50:47.516Z,14.40
2022-10-28T23:53:14.288Z,14.40
2022-10-28T23:55:47.819Z,14.40
2022-10-28T23:58:16.872Z,14.30
